Time;durP1;ratioP1;P1;durP2;ratioP2;P2;SDS_P1;SDS_P2;PMS_P1;PMS_P2;Temp;Humidity;BMP_temperature;BMP_pressure;BME280_temperature;BME280_humidity;BME280_pressure;Samples;Min_cycle;Max_cycle;Signal;HPM_P1;HPM_P2
2021/07/07 00:00:21;;;;;;;4.43;2.58;;;;;;;18.30;80.34;99886.38;5082797;28;20076;-70
2021/07/07 00:02:47;;;;;;;6.00;2.47;;;;;;;18.21;80.27;99874.53;5082717;28;20093;-70
2021/07/07 00:05:15;;;;;;;3.80;2.53;;;;;;;18.17;80.55;99890.53;5081642;28;20240;-70
2021/07/07 00:07:41;;;;;;;2.75;2.17;;;;;;;18.14;80.15;99882.78;5082666;28;20107;-71
2021/07/07 00:10:13;;;;;;;3.50;1.95;;;;;;;18.16;80.11;99896.72;5082658;28;20024;-71
2021/07/07 00:12:38;;;;;;;5.22;2.00;;;;;;;18.13;79.84;99896.88;5083154;28;20025;-72
2021/07/07 00:15:07;;;;;;;5.38;2.20;;;;;;;18.05;79.78;99895.41;5086324;28;20111;-72
2021/07/07 00:17:32;;;;;;;4.38;1.65;;;;;;;18.00;79.71;99891.31;5086173;28;20040;-69
2021/07/07 00:19:57;;;;;;;5.75;1.95;;;;;;;17.96;79.33;99895.84;5084881;28;20021;-70
2021/07/07 00:22:23;;;;;;;3.90;1.90;;;;;;;17.91;79.29;99895.22;5086227;28;20044;-70
2021/07/07 00:24:48;;;;;;;5.53;1.77;;;;;;;17.88;79.54;99890.09;5086203;28;20081;-70
2021/07/07 00:27:14;;;;;;;9.70;2.55;;;;;;;17.80;79.31;99899.22;5085953;28;20284;-71
2021/07/07 00:29:40;;;;;;;6.68;1.70;;;;;;;17.71;79.65;99910.16;5086193;28;20035;-70
2021/07/07 00:32:06;;;;;;;7.00;1.80;;;;;;;17.61;79.56;99908.84;5084827;28;20043;-71
2021/07/07 00:34:32;;;;;;;11.02;2.45;;;;;;;17.57;79.80;99919.50;5086149;28;20028;-71
2021/07/07 00:36:58;;;;;;;4.70;2.00;;;;;;;17.59;79.60;99920.28;5084529;28;20028;-71
2021/07/07 00:39:23;;;;;;;10.65;2.40;;;;;;;17.57;79.79;99927.38;5085758;28;20112;-71
2021/07/07 00:41:48;;;;;;;6.53;1.98;;;;;;;17.55;79.80;99923.13;5085970;28;20020;-71
2021/07/07 00:44:14;;;;;;;7.97;2.88;;;;;;;17.51;80.07;99922.41;5085826;28;20384;-71
2021/07/07 00:46:39;;;;;;;6.22;2.03;;;;;;;17.43;79.94;99919.25;5086076;28;20024;-71
2021/07/07 00:49:05;;;;;;;7.00;2.00;;;;;;;17.40;79.93;99927.28;5085618;28;20044;-71
2021/07/07 00:51:32;;;;;;;8.27;2.38;;;;;;;17.41;80.13;99926.38;5085782;28;20037;-71
2021/07/07 00:53:59;;;;;;;10.05;2.72;;;;;;;17.33;80.37;99934.59;5085695;28;20013;-71
2021/07/07 00:56:27;;;;;;;9.13;2.25;;;;;;;17.28;80.75;99926.06;5085908;28;20053;-70
2021/07/07 00:58:54;;;;;;;6.25;2.22;;;;;;;17.23;81.05;99913.16;5085489;28;20028;-69
2021/07/07 01:01:20;;;;;;;5.05;2.05;;;;;;;17.24;80.84;99914.00;5084061;28;20058;-70
2021/07/07 01:03:45;;;;;;;16.42;2.58;;;;;;;17.22;80.93;99909.66;5085367;28;20020;-71
2021/07/07 01:06:11;;;;;;;13.63;2.70;;;;;;;17.18;81.00;99915.97;5085414;28;20027;-71
2021/07/07 01:08:36;;;;;;;16.88;3.17;;;;;;;17.22;80.89;99920.16;5084155;28;20111;-70
2021/07/07 01:11:01;;;;;;;22.35;3.60;;;;;;;17.22;81.16;99924.56;5085488;28;20532;-70
2021/07/07 01:13:27;;;;;;;10.30;2.70;;;;;;;17.20;81.11;99913.28;5085444;28;20028;-70
2021/07/07 01:15:55;;;;;;;18.80;3.97;;;;;;;17.20;80.89;99908.88;5083980;28;20154;-70
2021/07/07 01:18:21;;;;;;;8.07;2.85;;;;;;;17.22;81.15;99914.91;5085125;28;20120;-70
2021/07/07 01:20:46;;;;;;;16.17;3.25;;;;;;;17.20;81.02;99924.63;5085001;28;20029;-70
2021/07/07 01:23:12;;;;;;;14.63;3.50;;;;;;;17.21;81.34;99925.47;5085303;28;20020;-70
2021/07/07 01:25:38;;;;;;;17.42;4.07;;;;;;;17.22;81.35;99949.00;5084226;28;20056;-70
2021/07/07 01:28:06;;;;;;;14.55;3.80;;;;;;;17.18;81.55;99938.72;5084940;28;20051;-71
2021/07/07 01:30:32;;;;;;;22.83;3.35;;;;;;;17.15;81.60;99951.97;5084803;28;20041;-70
2021/07/07 01:32:57;;;;;;;13.65;3.20;;;;;;;17.20;81.50;99952.63;5084776;28;20478;-71
2021/07/07 01:35:23;;;;;;;15.68;3.95;;;;;;;17.24;81.38;99948.94;5085009;28;20027;-70
2021/07/07 01:37:50;;;;;;;16.38;3.45;;;;;;;17.26;81.50;99952.38;5084647;28;20040;-70
2021/07/07 01:40:20;;;;;;;14.73;3.35;;;;;;;17.27;81.19;99954.06;5083560;28;20546;-71
2021/07/07 01:42:46;;;;;;;14.20;4.00;;;;;;;17.27;81.49;99956.69;5084672;28;20132;-69
2021/07/07 01:45:13;;;;;;;19.35;3.50;;;;;;;17.26;81.31;99960.22;5084924;28;20027;-70
2021/07/07 01:47:39;;;;;;;15.80;3.67;;;;;;;17.22;81.35;99958.69;5084670;28;20024;-71
2021/07/07 01:50:06;;;;;;;18.63;3.45;;;;;;;17.15;81.36;99967.72;5084278;28;20060;-71
2021/07/07 01:52:32;;;;;;;21.75;3.50;;;;;;;17.14;81.40;99981.75;5083380;28;20020;-70
2021/07/07 01:54:58;;;;;;;16.02;4.00;;;;;;;17.11;81.55;99971.41;5083264;28;20024;-70
2021/07/07 01:57:23;;;;;;;16.30;3.45;;;;;;;17.07;81.66;99971.50;5084326;28;20024;-69
2021/07/07 01:59:49;;;;;;;14.52;3.63;;;;;;;17.01;81.71;99969.13;5084130;28;20116;-69
2021/07/07 02:02:14;;;;;;;18.48;4.05;;;;;;;16.98;81.79;99961.41;5084434;28;20021;-69
2021/07/07 02:04:40;;;;;;;15.73;3.38;;;;;;;16.98;81.99;99966.66;5084470;28;20495;-70
2021/07/07 02:07:05;;;;;;;12.32;3.30;;;;;;;16.95;82.26;99962.38;5084203;28;20032;-70
2021/07/07 02:09:30;;;;;;;25.98;4.40;;;;;;;16.95;82.34;99972.00;5082758;28;20056;-70
2021/07/07 02:11:56;;;;;;;20.48;4.30;;;;;;;16.90;82.36;99971.34;5082827;28;20024;-70
2021/07/07 02:14:21;;;;;;;12.98;3.60;;;;;;;16.85;82.59;99972.38;5084207;28;20032;-68
2021/07/07 02:16:46;;;;;;;11.52;4.85;;;;;;;16.84;82.62;99988.19;5084322;28;20028;-69
2021/07/07 02:19:13;;;;;;;11.77;3.45;;;;;;;16.82;82.81;99983.00;5083921;28;20028;-70
2021/07/07 02:21:39;;;;;;;9.32;3.90;;;;;;;16.78;83.00;99976.19;5084129;28;20039;-69
2021/07/07 02:24:04;;;;;;;14.88;3.40;;;;;;;16.75;83.20;99978.06;5083942;28;20576;-69
2021/07/07 02:26:30;;;;;;;14.40;3.88;;;;;;;16.73;83.25;99967.66;5083822;28;20032;-69
2021/07/07 02:28:55;;;;;;;14.10;4.75;;;;;;;16.70;83.28;99966.03;5083748;28;20021;-69
2021/07/07 02:31:21;;;;;;;15.70;4.63;;;;;;;16.68;83.62;99962.59;5083830;28;20107;-69
2021/07/07 02:33:46;;;;;;;18.92;4.35;;;;;;;16.67;83.69;99965.28;5083668;28;20028;-69
2021/07/07 02:36:12;;;;;;;15.10;4.97;;;;;;;16.61;83.68;99955.94;5083701;28;20028;-70
2021/07/07 02:38:37;;;;;;;14.80;4.30;;;;;;;16.63;83.59;99961.09;5083575;28;20036;-69
2021/07/07 02:41:03;;;;;;;16.00;4.97;;;;;;;16.61;83.67;99955.94;5083749;28;20078;-69
2021/07/07 02:43:28;;;;;;;13.13;4.65;;;;;;;16.60;83.60;99965.53;5082291;28;20020;-69
2021/07/07 02:45:54;;;;;;;17.27;4.68;;;;;;;16.58;83.65;99975.22;5083604;28;20036;-70
2021/07/07 02:48:19;;;;;;;12.98;4.20;;;;;;;16.55;83.96;99985.84;5083549;28;20115;-70
2021/07/07 02:50:45;;;;;;;19.90;4.93;;;;;;;16.54;83.86;99997.25;5083444;28;20044;-70
2021/07/07 02:53:13;;;;;;;15.00;5.00;;;;;;;16.52;83.98;99995.59;5083766;28;20052;-69
2021/07/07 02:55:39;;;;;;;15.43;4.82;;;;;;;16.55;83.76;99993.69;5083459;28;20028;-69
2021/07/07 02:58:05;;;;;;;11.43;5.53;;;;;;;16.57;83.87;100006.72;5083294;28;20032;-70
2021/07/07 03:00:35;;;;;;;16.15;4.78;;;;;;;16.57;84.10;100009.34;5082068;28;20024;-69
2021/07/07 03:03:08;;;;;;;16.08;5.00;;;;;;;16.55;84.22;100014.66;5083442;28;20024;-70
2021/07/07 03:05:42;;;;;;;14.73;4.75;;;;;;;16.54;83.99;100027.81;5083469;28;20033;-69
2021/07/07 03:08:09;;;;;;;17.90;4.95;;;;;;;16.58;84.22;100025.00;5083250;28;20033;-69
2021/07/07 03:10:35;;;;;;;16.50;4.88;;;;;;;16.65;84.13;100024.75;5083431;28;20075;-70
2021/07/07 03:13:01;;;;;;;12.27;4.28;;;;;;;16.71;84.00;100024.53;5083410;28;20027;-70
2021/07/07 03:15:27;;;;;;;18.17;4.93;;;;;;;16.75;83.84;100040.97;5082262;28;20024;-70
2021/07/07 03:17:55;;;;;;;21.95;5.03;;;;;;;16.76;83.93;100038.31;5083241;28;20024;-69
2021/07/07 03:20:21;;;;;;;13.90;3.60;;;;;;;16.79;84.00;100030.31;5083158;28;20099;-70
2021/07/07 03:22:47;;;;;;;9.82;4.25;;;;;;;16.83;83.55;100037.16;5082026;28;20020;-71
2021/07/07 03:25:13;;;;;;;19.55;4.60;;;;;;;16.85;83.66;100045.78;5083406;28;20169;-71
2021/07/07 03:27:38;;;;;;;16.65;4.32;;;;;;;16.90;83.42;100047.38;5083170;28;20513;-71
2021/07/07 03:30:05;;;;;;;12.93;3.95;;;;;;;16.93;83.20;100049.88;5083131;28;20040;-71
2021/07/07 03:32:31;;;;;;;16.13;3.88;;;;;;;16.96;83.07;100047.97;5081758;28;20028;-71
2021/07/07 03:34:56;;;;;;;10.68;3.72;;;;;;;16.94;82.84;100044.56;5083132;28;20024;-71
2021/07/07 03:37:21;;;;;;;9.85;4.50;;;;;;;17.02;82.77;100061.75;5081556;28;20043;-71
2021/07/07 03:39:47;;;;;;;16.08;4.38;;;;;;;16.99;82.47;100057.50;5081778;28;20578;-72
2021/07/07 03:42:13;;;;;;;11.52;3.30;;;;;;;17.04;82.26;100052.06;5083008;28;20024;-72
2021/07/07 03:44:38;;;;;;;17.15;4.68;;;;;;;17.03;82.52;100069.56;5081622;28;20054;-71
2021/07/07 03:47:03;;;;;;;11.75;3.47;;;;;;;17.02;82.19;100064.38;5083058;28;20029;-71
2021/07/07 03:49:29;;;;;;;15.00;4.18;;;;;;;17.00;82.18;100069.69;5086015;28;20086;-68
2021/07/07 03:51:54;;;;;;;12.55;3.80;;;;;;;17.00;82.32;100069.69;5085398;28;20384;-70
2021/07/07 03:54:23;;;;;;;14.00;3.78;;;;;;;16.99;82.17;100070.59;5086645;28;20020;-70
2021/07/07 03:56:48;;;;;;;9.68;3.40;;;;;;;16.98;82.33;100068.91;5086757;28;20099;-69
2021/07/07 03:59:14;;;;;;;13.75;3.90;;;;;;;17.01;82.17;100076.66;5086597;28;20507;-69
2021/07/07 04:01:39;;;;;;;11.50;3.72;;;;;;;17.05;82.07;100069.50;5086469;28;20289;-69
2021/07/07 04:04:04;;;;;;;8.80;3.45;;;;;;;17.14;82.13;100076.19;5085335;28;20144;-70
2021/07/07 04:06:30;;;;;;;13.52;3.72;;;;;;;17.17;81.68;100087.38;5086503;28;20110;-72
2021/07/07 04:08:55;;;;;;;9.52;3.38;;;;;;;17.22;81.60;100084.59;5086581;28;20020;-74
2021/07/07 04:11:20;;;;;;;9.85;3.45;;;;;;;17.26;81.45;100085.28;5085049;28;20024;-73
2021/07/07 04:13:46;;;;;;;12.80;3.88;;;;;;;17.25;81.03;100089.69;5086022;28;20052;-72
2021/07/07 04:16:11;;;;;;;7.13;2.92;;;;;;;17.29;81.32;100093.91;5085598;28;20029;-72
2021/07/07 04:18:36;;;;;;;7.93;3.72;;;;;;;17.29;80.78;100096.50;5084850;28;20032;-73
2021/07/07 04:21:02;;;;;;;7.55;3.10;;;;;;;17.30;80.81;100102.63;5085907;28;20493;-72
2021/07/07 04:23:27;;;;;;;7.65;3.50;;;;;;;17.36;81.25;100106.75;5086362;28;20028;-72
2021/07/07 04:25:52;;;;;;;11.70;2.75;;;;;;;17.62;81.69;100099.56;5084696;28;20111;-73
2021/07/07 04:28:18;;;;;;;6.03;2.72;;;;;;;17.89;81.24;100104.53;5085847;28;20101;-71
2021/07/07 04:30:43;;;;;;;8.45;3.20;;;;;;;18.08;80.75;100112.44;5086140;28;20024;-67
2021/07/07 04:33:08;;;;;;;13.30;2.88;;;;;;;18.12;80.50;100107.91;5084793;28;20051;-71
2021/07/07 04:35:34;;;;;;;11.93;3.03;;;;;;;18.20;79.80;100124.19;5085982;28;20429;-71
2021/07/07 04:37:59;;;;;;;9.25;2.67;;;;;;;18.24;79.29;100131.03;5084534;28;20023;-70
2021/07/07 04:40:26;;;;;;;8.70;2.40;;;;;;;18.27;78.66;100124.78;5084870;28;20029;-70
2021/07/07 04:42:51;;;;;;;7.63;2.58;;;;;;;18.42;78.02;100142.47;5084864;28;20021;-70
2021/07/07 04:45:17;;;;;;;8.38;2.47;;;;;;;18.63;77.19;100133.66;5084935;28;20052;-71
2021/07/07 04:47:43;;;;;;;6.97;2.05;;;;;;;18.87;76.82;100138.66;5084989;28;20082;-71
2021/07/07 04:50:12;;;;;;;8.43;2.10;;;;;;;19.11;75.19;100141.06;5084790;28;20154;-71
2021/07/07 04:52:38;;;;;;;9.23;2.60;;;;;;;19.22;74.64;100136.16;5085557;28;20050;-71
2021/07/07 04:55:06;;;;;;;8.77;2.38;;;;;;;19.14;72.00;100133.91;5085934;28;20424;-71
2021/07/07 04:57:40;;;;;;;7.35;2.22;;;;;;;19.11;71.71;100141.06;5084297;28;20020;-72
2021/07/07 05:00:18;;;;;;;5.70;2.08;;;;;;;18.96;72.07;100146.16;5084569;28;20110;-73
2021/07/07 05:02:44;;;;;;;8.85;2.30;;;;;;;18.87;70.54;100139.53;5085494;28;20032;-71
2021/07/07 05:05:11;;;;;;;13.38;2.92;;;;;;;18.76;69.68;100147.06;5085533;28;20020;-71
2021/07/07 05:07:37;;;;;;;8.13;1.95;;;;;;;18.65;69.70;100144.94;5085634;28;20020;-71
2021/07/07 05:10:05;;;;;;;6.65;2.10;;;;;;;18.60;68.88;100149.56;5085551;28;20017;-71
2021/07/07 05:12:32;;;;;;;9.18;2.53;;;;;;;18.50;69.12;100146.53;5085223;28;20029;-71
2021/07/07 05:14:59;;;;;;;7.10;2.10;;;;;;;18.49;68.41;100158.81;5085339;28;20073;-71
2021/07/07 05:17:25;;;;;;;9.35;2.75;;;;;;;18.40;68.33;100159.22;5084998;28;20016;-70
2021/07/07 05:19:51;;;;;;;7.82;2.42;;;;;;;18.35;67.79;100158.59;5085115;28;20021;-70
2021/07/07 05:22:16;;;;;;;8.77;2.92;;;;;;;18.29;68.59;100159.72;5085065;28;20028;-71
2021/07/07 05:24:42;;;;;;;10.20;2.40;;;;;;;18.25;68.34;100153.75;5085187;28;20028;-70
2021/07/07 05:27:07;;;;;;;7.85;2.25;;;;;;;18.26;67.84;100154.59;5084882;28;20084;-71
2021/07/07 05:29:32;;;;;;;6.95;1.95;;;;;;;18.35;67.74;100166.47;5084955;28;20028;-70
2021/07/07 05:31:58;;;;;;;14.57;3.17;;;;;;;18.40;67.80;100169.75;5084984;28;20219;-71
2021/07/07 05:34:25;;;;;;;7.60;2.08;;;;;;;18.41;67.41;100174.06;5084988;28;20028;-70
2021/07/07 05:36:50;;;;;;;7.57;2.20;;;;;;;18.50;67.71;100168.38;5085067;28;20032;-70
2021/07/07 05:39:16;;;;;;;8.48;2.75;;;;;;;18.70;67.71;100174.50;5084710;28;20021;-70
2021/07/07 05:41:41;;;;;;;8.02;2.03;;;;;;;18.86;67.83;100168.53;5084825;28;20020;-71
2021/07/07 05:44:07;;;;;;;9.23;2.33;;;;;;;19.18;66.96;100174.94;5083570;28;20048;-71
2021/07/07 05:46:32;;;;;;;8.77;2.03;;;;;;;19.26;66.12;100182.47;5085620;28;20074;-71
2021/07/07 05:48:57;;;;;;;8.45;2.30;;;;;;;19.35;66.34;100185.53;5084619;28;20062;-71
2021/07/07 05:51:23;;;;;;;10.02;2.00;;;;;;;19.60;65.94;100184.34;5084670;28;20043;-71
2021/07/07 05:53:48;;;;;;;9.48;2.55;;;;;;;20.16;65.36;100181.56;5084771;28;20028;-70
2021/07/07 05:56:13;;;;;;;7.22;1.95;;;;;;;20.70;63.94;100185.72;5084692;28;20027;-71
2021/07/07 05:58:39;;;;;;;10.40;2.67;;;;;;;20.96;62.40;100178.16;5083108;28;20027;-70
2021/07/07 06:01:04;;;;;;;12.50;2.78;;;;;;;21.13;60.65;100189.56;5084469;28;20036;-69
2021/07/07 06:03:30;;;;;;;9.45;2.47;;;;;;;21.14;60.71;100197.41;5082996;28;20042;-70
2021/07/07 06:05:55;;;;;;;14.43;2.05;;;;;;;21.03;59.46;100195.38;5084667;28;20030;-70
2021/07/07 06:08:20;;;;;;;9.27;2.38;;;;;;;20.86;60.15;100201.56;5084266;28;20565;-69
2021/07/07 06:10:46;;;;;;;8.20;2.35;;;;;;;20.73;59.56;100195.25;5084042;28;20031;-70
2021/07/07 06:13:12;;;;;;;13.05;3.03;;;;;;;20.62;59.08;100204.63;5083017;28;20013;-70
2021/07/07 06:15:38;;;;;;;11.05;2.08;;;;;;;20.52;59.30;100214.81;5084415;28;20028;-70
2021/07/07 06:18:07;;;;;;;6.50;1.90;;;;;;;20.45;59.71;100216.03;5084119;28;20044;-70
2021/07/07 06:20:34;;;;;;;10.25;2.42;;;;;;;20.72;60.19;100222.56;5084104;28;20244;-69
2021/07/07 06:22:59;;;;;;;12.45;3.33;;;;;;;21.02;58.41;100206.03;5083986;28;20017;-69
2021/07/07 06:25:25;;;;;;;6.63;1.90;;;;;;;21.29;58.82;100208.88;5084073;28;20374;-70
2021/07/07 06:27:51;;;;;;;6.32;1.80;;;;;;;21.55;58.68;100211.81;5083937;28;20032;-69
2021/07/07 06:30:20;;;;;;;9.45;2.28;;;;;;;21.75;57.16;100206.31;5082518;28;20056;-69
2021/07/07 06:32:47;;;;;;;8.73;2.00;;;;;;;21.95;55.58;100220.16;5083833;28;20036;-69
2021/07/07 06:35:14;;;;;;;9.55;1.95;;;;;;;21.76;55.05;100222.06;5082605;28;20058;-70
2021/07/07 06:37:39;;;;;;;5.50;1.80;;;;;;;21.70;55.68;100219.78;5083552;28;20029;-70
2021/07/07 06:40:06;;;;;;;8.60;2.08;;;;;;;21.60;55.69;100210.72;5083546;28;20023;-70
2021/07/07 06:42:32;;;;;;;6.95;2.13;;;;;;;21.41;56.08;100220.53;5082328;28;20567;-70
2021/07/07 06:44:58;;;;;;;8.73;2.05;;;;;;;21.18;56.78;100213.94;5083661;28;20028;-70
2021/07/07 06:47:23;;;;;;;12.60;2.17;;;;;;;21.10;57.11;100224.06;5083647;28;20024;-70
2021/07/07 06:49:49;;;;;;;12.32;1.95;;;;;;;20.90;57.19;100228.63;5083539;28;20048;-70
2021/07/07 06:52:16;;;;;;;6.53;2.40;;;;;;;21.03;57.85;100234.09;5082234;28;20035;-70
2021/07/07 06:54:42;;;;;;;8.35;2.22;;;;;;;21.49;57.17;100238.56;5082118;28;20293;-69
2021/07/07 06:57:12;;;;;;;6.70;2.00;;;;;;;21.84;54.86;100241.94;5083505;28;20020;-70
2021/07/07 06:59:38;;;;;;;12.27;2.88;;;;;;;21.79;54.45;100240.41;5083800;28;20025;-70
2021/07/07 07:02:06;;;;;;;11.05;1.98;;;;;;;;;;5083383;28;20025;-70
2021/07/07 07:04:32;;;;;;;8.02;2.17;;;;;;;21.41;55.34;100249.59;5083422;28;20388;-70
2021/07/07 07:06:57;;;;;;;10.55;2.40;;;;;;;21.13;56.13;100260.84;5083441;28;20020;-70
2021/07/07 07:09:24;;;;;;;17.08;3.05;;;;;;;20.95;56.21;100247.72;5083194;28;20021;-70
2021/07/07 07:11:51;;;;;;;10.07;2.42;;;;;;;20.82;56.88;100252.78;5083608;28;20119;-70
2021/07/07 07:14:16;;;;;;;6.63;1.83;;;;;;;20.76;57.76;100253.97;5083494;28;20032;-70
2021/07/07 07:16:45;;;;;;;5.55;2.08;;;;;;;20.75;58.32;100262.81;5083421;28;20047;-70
2021/07/07 07:19:13;;;;;;;9.55;2.58;;;;;;;20.85;58.62;100264.94;5083330;28;20016;-70
2021/07/07 07:21:39;;;;;;;13.27;3.05;;;;;;;20.78;57.77;100267.09;5083381;28;20051;-71
2021/07/07 07:24:04;;;;;;;9.85;2.58;;;;;;;20.57;57.46;100277.84;5086032;28;20024;-70
2021/07/07 07:26:30;;;;;;;6.45;2.20;;;;;;;20.47;57.34;100280.09;5087404;28;20021;-70
2021/07/07 07:28:56;;;;;;;6.00;2.25;;;;;;;20.37;57.31;100281.50;5086187;28;20074;-70
2021/07/07 07:31:22;;;;;;;7.82;1.80;;;;;;;20.35;57.35;100283.38;5087453;28;20024;-70
2021/07/07 07:33:49;;;;;;;7.38;1.60;;;;;;;20.32;58.21;100271.19;5087397;28;20034;-70
2021/07/07 07:36:15;;;;;;;12.43;2.53;;;;;;;20.40;58.34;100281.38;5087316;28;20024;-70
2021/07/07 07:38:43;;;;;;;7.90;1.88;;;;;;;20.61;58.24;100287.28;5087181;28;20109;-70
2021/07/07 07:41:09;;;;;;;7.15;2.20;;;;;;;20.74;57.74;100289.25;5087163;28;20429;-71
2021/07/07 07:43:35;;;;;;;8.18;2.53;;;;;;;20.77;57.71;100283.81;5087252;28;20028;-71
2021/07/07 07:46:02;;;;;;;11.10;1.95;;;;;;;20.73;58.00;100301.63;5087247;28;20197;-70
2021/07/07 07:48:27;;;;;;;9.65;2.03;;;;;;;20.88;57.88;100302.56;5087056;28;20044;-70
2021/07/07 07:50:54;;;;;;;8.25;1.73;;;;;;;21.16;56.77;100298.47;5085476;28;20440;-69
2021/07/07 07:53:22;;;;;;;9.13;1.85;;;;;;;21.74;54.10;100307.66;5086998;28;20021;-70
2021/07/07 07:55:48;;;;;;;7.05;2.05;;;;;;;22.25;53.18;100320.56;5085388;28;20035;-70
2021/07/07 07:58:18;;;;;;;12.15;2.30;;;;;;;22.81;52.87;100324.38;5086812;28;20024;-70
2021/07/07 08:00:45;;;;;;;11.07;2.42;;;;;;;23.53;50.82;100327.91;5087156;28;20013;-70
2021/07/07 08:03:11;;;;;;;5.95;2.75;;;;;;;23.99;49.59;100334.59;5085471;28;20021;-70
2021/07/07 08:05:37;;;;;;;9.32;2.40;;;;;;;23.86;48.47;100321.31;5086767;28;20035;-70
2021/07/07 08:08:02;;;;;;;6.55;1.90;;;;;;;23.47;49.36;100333.56;5086590;28;20035;-71
2021/07/07 08:10:29;;;;;;;10.35;3.05;;;;;;;23.02;48.83;100332.75;5086652;28;20047;-71
2021/07/07 08:12:55;;;;;;;17.10;2.88;;;;;;;22.45;50.06;100336.19;5086581;28;20024;-69
2021/07/07 08:15:22;;;;;;;15.90;3.17;;;;;;;22.12;50.76;100330.19;5086557;28;20451;-70
2021/07/07 08:17:48;;;;;;;9.13;2.85;;;;;;;21.89;51.46;100340.28;5086358;28;20039;-70
2021/07/07 08:20:14;;;;;;;14.65;3.00;;;;;;;21.80;52.10;100341.66;5086297;28;20029;-69
2021/07/07 08:22:40;;;;;;;6.72;2.15;;;;;;;21.72;52.38;100346.50;5084844;28;20082;-69
2021/07/07 08:25:06;;;;;;;8.93;2.22;;;;;;;21.82;52.66;100336.31;5086337;28;20062;-70
2021/07/07 08:27:32;;;;;;;15.40;3.40;;;;;;;22.07;53.42;100348.09;5086490;28;20409;-69
2021/07/07 08:29:57;;;;;;;10.95;2.65;;;;;;;22.61;52.42;100352.88;5084758;28;20024;-69
2021/07/07 08:32:23;;;;;;;9.90;2.63;;;;;;;23.23;50.82;100350.91;5086238;28;20025;-68
2021/07/07 08:34:48;;;;;;;10.23;2.30;;;;;;;23.73;49.15;100353.09;5085970;28;20021;-68
2021/07/07 08:37:15;;;;;;;9.32;2.17;;;;;;;24.28;48.35;100357.53;5086162;28;20017;-68
2021/07/07 08:39:40;;;;;;;10.75;2.13;;;;;;;24.94;46.29;100356.59;5086087;28;20035;-68
2021/07/07 08:42:06;;;;;;;8.43;2.17;;;;;;;25.31;44.90;100366.41;5085946;28;20025;-68
2021/07/07 08:44:31;;;;;;;6.32;1.65;;;;;;;25.17;43.88;100370.06;5084730;28;20024;-69
2021/07/07 08:46:56;;;;;;;10.30;2.50;;;;;;;24.48;45.17;100371.22;5086138;28;20028;-69
2021/07/07 08:49:22;;;;;;;9.55;2.25;;;;;;;24.10;47.46;100383.41;5085684;28;20047;-70
2021/07/07 08:51:48;;;;;;;15.73;2.20;;;;;;;24.23;45.30;100397.59;5085998;28;20056;-68
2021/07/07 08:54:13;;;;;;;8.15;2.10;;;;;;;24.17;46.25;100387.38;5085929;28;20048;-69
2021/07/07 08:56:43;;;;;;;9.80;2.08;;;;;;;24.66;45.27;100393.00;5085905;28;20025;-69
2021/07/07 08:59:09;;;;;;;13.07;2.40;;;;;;;24.66;44.81;100395.66;5085758;28;20039;-70
2021/07/07 09:02:07;;;;;;;6.88;1.95;;;;;;;24.56;46.10;100400.75;5085793;28;20048;-70
2021/07/07 09:04:41;;;;;;;7.78;2.75;;;;;;;24.26;45.73;100408.03;5085680;28;20031;-71
2021/07/07 09:07:08;;;;;;;8.07;2.17;;;;;;;23.94;46.89;100410.94;5085513;28;20052;-70
2021/07/07 09:09:34;;;;;;;6.78;1.92;;;;;;;24.44;46.65;100406.88;5084342;28;20025;-70
2021/07/07 09:11:59;;;;;;;9.75;2.70;;;;;;;24.63;46.21;100409.13;5085493;28;20491;-70
2021/07/07 09:14:32;;;;;;;10.52;2.60;;;;;;;24.62;45.58;100410.06;5085281;28;20029;-71
2021/07/07 09:16:59;;;;;;;10.82;2.75;;;;;;;24.56;45.69;100413.16;5085463;28;20024;-70
2021/07/07 09:19:26;;;;;;;10.27;2.42;;;;;;;24.28;45.32;100420.31;5085235;28;20024;-70
2021/07/07 09:21:55;;;;;;;9.77;2.25;;;;;;;23.72;46.32;100416.78;5085403;28;20031;-70
2021/07/07 09:24:24;;;;;;;5.80;2.40;;;;;;;23.55;47.52;100431.94;5083977;28;20020;-71
2021/07/07 09:27:11;;;;;;;9.38;2.20;;;;;;;23.31;48.09;100444.91;5083797;28;20086;-69
2021/07/07 09:29:52;;;;;;;8.55;2.40;;;;;;;22.90;49.28;100452.63;5085172;28;20051;-70
2021/07/07 09:32:19;;;;;;;12.23;1.98;;;;;;;22.69;50.58;100446.81;5083719;28;20019;-70
2021/07/07 09:34:49;;;;;;;10.70;2.78;;;;;;;22.70;50.66;100454.66;5085188;28;20141;-70
2021/07/07 09:37:24;;;;;;;11.30;2.35;;;;;;;22.48;51.45;100452.38;5083676;28;20025;-71
2021/07/07 09:39:49;;;;;;;13.60;2.75;;;;;;;22.29;51.84;100456.97;5085053;28;20074;-70
2021/07/07 09:42:30;;;;;;;10.85;2.13;;;;;;;22.35;52.23;100439.88;5084761;28;20040;-70
2021/07/07 09:44:57;;;;;;;7.63;1.80;;;;;;;23.17;50.50;100456.34;5084796;28;20032;-71
2021/07/07 09:47:24;;;;;;;8.20;2.80;;;;;;;23.18;49.11;100464.19;5084326;28;20024;-69
2021/07/07 09:49:50;;;;;;;5.82;1.90;;;;;;;23.11;49.45;100465.53;5084483;28;20041;-69
2021/07/07 09:52:18;;;;;;;6.20;1.60;;;;;;;23.12;49.75;100468.06;5083155;28;20020;-70
2021/07/07 09:54:44;;;;;;;11.73;2.17;;;;;;;23.61;48.92;100463.34;5084669;28;20039;-70
2021/07/07 09:57:09;;;;;;;8.77;2.17;;;;;;;23.93;47.75;100475.50;5083381;28;20051;-70
2021/07/07 09:59:36;;;;;;;6.88;1.60;;;;;;;23.77;47.45;100475.66;5084510;28;20020;-70
2021/07/07 10:02:03;;;;;;;9.55;2.33;;;;;;;24.08;47.44;100483.44;5084426;28;20070;-70
2021/07/07 10:04:32;;;;;;;7.20;1.73;;;;;;;24.67;45.88;100479.63;5084792;28;20035;-70
2021/07/07 10:06:59;;;;;;;6.68;1.88;;;;;;;24.60;45.12;100484.50;5084405;28;20096;-70
2021/07/07 10:09:26;;;;;;;8.65;2.05;;;;;;;24.59;44.76;100477.50;5084391;28;20031;-69
2021/07/07 10:11:54;;;;;;;9.20;2.20;;;;;;;24.78;45.34;100476.25;5084227;28;20021;-69
2021/07/07 10:14:21;;;;;;;8.50;1.95;;;;;;;24.92;44.71;100477.97;5084288;28;20046;-69
2021/07/07 10:16:48;;;;;;;6.82;1.90;;;;;;;24.74;44.99;100474.75;5084128;28;20024;-70
2021/07/07 10:19:15;;;;;;;9.38;3.67;;;;;;;24.80;45.12;100484.09;5084085;28;20028;-70
2021/07/07 10:21:40;;;;;;;9.30;2.42;;;;;;;24.83;45.40;100489.19;5084024;28;20433;-69
2021/07/07 10:24:08;;;;;;;7.55;2.08;;;;;;;24.96;44.75;100498.09;5083994;28;20027;-70
2021/07/07 10:26:36;;;;;;;8.07;2.20;;;;;;;24.96;44.14;100494.56;5084002;28;20036;-69
2021/07/07 10:29:03;;;;;;;4.35;1.70;;;;;;;24.97;44.14;100502.44;5084120;28;20465;-69
2021/07/07 10:31:47;;;;;;;6.50;1.90;;;;;;;24.44;44.38;100495.25;5083983;28;20024;-68
2021/07/07 10:34:13;;;;;;;10.40;2.60;;;;;;;23.95;46.03;100494.81;5083744;28;20129;-68
2021/07/07 10:36:42;;;;;;;7.78;2.20;;;;;;;23.63;45.99;100490.63;5083824;28;20544;-69
2021/07/07 10:39:09;;;;;;;8.63;2.00;;;;;;;23.60;46.31;100485.50;5083948;28;20039;-69
2021/07/07 10:41:47;;;;;;;7.63;2.65;;;;;;;23.88;46.80;100483.75;5083702;28;20051;-69
2021/07/07 10:44:22;;;;;;;8.38;2.10;;;;;;;24.51;44.40;100491.28;5082361;28;20262;-69
2021/07/07 10:47:05;;;;;;;9.23;1.70;;;;;;;24.63;43.08;100496.72;5083780;28;20024;-69
2021/07/07 10:49:37;;;;;;;6.32;1.77;;;;;;;24.60;43.90;100515.50;5083287;28;20055;-69
2021/07/07 10:52:08;;;;;;;6.65;2.13;;;;;;;25.18;43.90;100514.31;5083695;28;20332;-69
2021/07/07 10:54:37;;;;;;;6.65;1.65;;;;;;;25.82;42.29;100521.44;5083541;28;20048;-69
2021/07/07 10:57:05;;;;;;;9.98;1.60;;;;;;;26.14;41.67;100525.38;5083785;28;20029;-69
2021/07/07 10:59:35;;;;;;;6.05;2.17;;;;;;;26.32;40.33;100520.56;5083347;28;20074;-69
2021/07/07 11:02:07;;;;;;;6.90;2.15;;;;;;;25.99;40.11;100519.38;5083277;28;20104;-69
2021/07/07 11:04:34;;;;;;;7.55;2.20;;;;;;;25.23;41.88;100538.78;5083582;28;20021;-69
2021/07/07 11:07:30;;;;;;;6.50;2.15;;;;;;;24.60;44.37;100529.59;5083636;28;20048;-69
2021/07/07 11:10:08;;;;;;;8.25;2.00;;;;;;;24.33;44.01;100522.50;5083291;28;20024;-69
2021/07/07 11:12:37;;;;;;;9.73;1.73;;;;;;;24.09;44.50;100540.84;5082047;28;20016;-69
2021/07/07 11:15:05;;;;;;;11.55;2.00;;;;;;;24.02;44.86;100530.63;5083364;28;20020;-69
2021/07/07 11:17:35;;;;;;;8.60;2.03;;;;;;;23.87;45.07;100534.22;5083290;28;20484;-69
2021/07/07 11:20:12;;;;;;;10.82;2.40;;;;;;;23.54;45.79;100538.03;5081837;28;20052;-69
2021/07/07 11:22:39;;;;;;;8.65;2.72;;;;;;;23.35;46.21;100532.03;5083206;28;20395;-69